Time;durP1;ratioP1;P1;durP2;ratioP2;P2;SDS_P1;SDS_P2;PMS_P1;PMS_P2;Temp;Humidity;BMP_temperature;BMP_pressure;BME280_temperature;BME280_humidity;BME280_pressure;Samples;Min_cycle;Max_cycle;Signal;HPM_P1;HPM_P2
2021/06/28 00:00:18;;;;;;;8.43;7.63;;;21.70;82.20;;;;;;5051941;28;20850;-50
2021/06/28 00:02:45;;;;;;;9.00;8.10;;;21.70;82.30;;;;;;5053563;28;20903;-49
2021/06/28 00:05:14;;;;;;;7.20;6.50;;;21.70;82.40;;;;;;5053761;28;20443;-50
2021/06/28 00:07:42;;;;;;;8.40;7.70;;;21.70;82.50;;;;;;5053518;28;20933;-49
2021/06/28 00:10:12;;;;;;;8.10;7.00;;;21.70;82.60;;;;;;5053150;28;20433;-50
2021/06/28 00:12:39;;;;;;;7.70;7.00;;;21.60;82.70;;;;;;5053441;28;20465;-50
2021/06/28 00:15:09;;;;;;;7.63;7.00;;;21.60;82.80;;;;;;5053422;28;20434;-50
2021/06/28 00:17:36;;;;;;;6.37;5.80;;;21.60;83.20;;;;;;5053357;28;20486;-50
2021/06/28 00:20:05;;;;;;;8.10;7.07;;;21.10;82.70;;;;;;5053100;28;20942;-51
2021/06/28 00:22:32;;;;;;;9.67;7.80;;;21.60;83.30;;;;;;5053242;28;20934;-50
2021/06/28 00:24:58;;;;;;;8.93;8.03;;;21.60;83.50;;;;;;5053263;28;20437;-49
2021/06/28 00:27:26;;;;;;;8.13;6.70;;;21.60;83.60;;;;;;5053134;28;20455;-49
2021/06/28 00:29:53;;;;;;;7.80;7.10;;;21.60;83.90;;;;;;5053068;28;20440;-50
2021/06/28 00:32:20;;;;;;;8.00;7.13;;;21.50;83.90;;;;;;5052917;28;20524;-50
2021/06/28 00:34:47;;;;;;;8.27;7.13;;;21.50;84.10;;;;;;5053103;28;20434;-49
2021/06/28 00:37:13;;;;;;;7.10;6.50;;;21.50;84.20;;;;;;5052909;28;20993;-49
2021/06/28 00:39:40;;;;;;;7.50;6.80;;;21.50;84.30;;;;;;5052940;28;20839;-50
2021/06/28 00:42:07;;;;;;;7.30;6.60;;;21.50;84.50;;;;;;5053174;28;20892;-49
2021/06/28 00:44:35;;;;;;;7.30;6.63;;;21.50;84.60;;;;;;5052945;28;20436;-49
2021/06/28 00:47:02;;;;;;;6.80;6.20;;;21.50;84.70;;;;;;5052643;28;20479;-50
2021/06/28 00:49:29;;;;;;;7.30;6.60;;;21.40;84.70;;;;;;5052403;28;20445;-49
2021/06/28 00:51:57;;;;;;;7.40;6.80;;;21.40;84.90;;;;;;5052890;28;20749;-49
2021/06/28 00:54:24;;;;;;;6.93;6.33;;;21.40;85.00;;;;;;5052980;28;20528;-50
2021/06/28 00:56:51;;;;;;;9.10;6.53;;;21.40;85.10;;;;;;5052489;28;20507;-49
2021/06/28 00:59:18;;;;;;;8.57;6.70;;;21.40;85.20;;;;;;5054553;28;20432;-50
2021/06/28 01:01:46;;;;;;;7.23;6.63;;;21.40;85.40;;;;;;5054640;28;20532;-48
2021/06/28 01:04:13;;;;;;;6.33;5.80;;;21.40;85.60;;;;;;5052654;28;20439;-50
2021/06/28 01:06:40;;;;;;;7.40;6.70;;;21.40;85.70;;;;;;5052553;28;20453;-49
2021/06/28 01:09:06;;;;;;;7.73;7.07;;;21.40;85.70;;;;;;5052202;28;20504;-52
2021/06/28 01:11:33;;;;;;;8.87;7.03;;;21.40;85.80;;;;;;5052718;28;20446;-50
2021/06/28 01:14:00;;;;;;;7.73;6.77;;;21.40;85.80;;;;;;5052464;28;20446;-49
2021/06/28 01:16:27;;;;;;;7.33;6.73;;;21.40;86.00;;;;;;5052184;28;20483;-50
2021/06/28 01:18:55;;;;;;;6.93;6.33;;;21.40;86.10;;;;;;5051945;28;20544;-49
2021/06/28 01:21:22;;;;;;;7.50;6.87;;;21.30;86.00;;;;;;5052329;28;20447;-49
2021/06/28 01:23:51;;;;;;;6.90;6.30;;;21.30;86.10;;;;;;5052464;28;20440;-48
2021/06/28 01:26:17;;;;;;;7.33;6.57;;;21.30;86.20;;;;;;5052250;28;20461;-49
2021/06/28 01:28:44;;;;;;;8.17;7.03;;;21.50;86.50;;;;;;5051899;28;20792;-49
2021/06/28 01:31:13;;;;;;;9.23;7.30;;;21.30;86.40;;;;;;5050712;28;20450;-50
2021/06/28 01:33:40;;;;;;;7.40;6.70;;;21.30;87.20;;;;;;5052246;28;20774;-50
2021/06/28 01:36:08;;;;;;;7.97;7.27;;;21.30;86.60;;;;;;5052031;28;20468;-50
2021/06/28 01:38:35;;;;;;;7.67;6.47;;;21.30;86.80;;;;;;5051796;28;20537;-49
2021/06/28 01:41:03;;;;;;;6.87;6.27;;;21.30;86.80;;;;;;5052401;28;20846;-49
2021/06/28 01:43:30;;;;;;;6.33;5.83;;;21.20;86.80;;;;;;5051894;28;20441;-49
2021/06/28 01:45:57;;;;;;;7.27;6.50;;;21.20;86.90;;;;;;5051807;28;20472;-49
2021/06/28 01:48:24;;;;;;;6.70;6.10;;;21.20;87.10;;;;;;5051565;28;20436;-50
2021/06/28 01:50:52;;;;;;;7.40;6.70;;;21.20;87.20;;;;;;5051964;28;20465;-51
2021/06/28 01:53:19;;;;;;;13.90;7.40;;;21.20;87.40;;;;;;5051727;28;20505;-51
2021/06/28 01:55:46;;;;;;;9.77;8.13;;;21.10;87.30;;;;;;5051635;28;20459;-50
2021/06/28 01:58:16;;;;;;;11.07;7.00;;;21.10;87.40;;;;;;5051175;28;20499;-49
2021/06/28 02:00:45;;;;;;;7.83;7.03;;;21.10;87.50;;;;;;5051914;28;20940;-50
2021/06/28 02:03:14;;;;;;;7.87;7.17;;;21.10;87.70;;;;;;5051130;28;20433;-50
2021/06/28 02:05:44;;;;;;;8.17;6.30;;;21.00;87.70;;;;;;5051640;28;20744;-49
2021/06/28 02:08:12;;;;;;;6.43;5.83;;;21.00;88.00;;;;;;5051205;28;20443;-49
2021/06/28 02:10:41;;;;;;;7.40;6.70;;;21.00;88.20;;;;;;5051599;28;20892;-49
2021/06/28 02:13:07;;;;;;;8.40;6.70;;;21.00;88.20;;;;;;5053551;28;20432;-51
2021/06/28 02:15:35;;;;;;;8.13;7.10;;;20.90;88.20;;;;;;5051480;28;20946;-49
2021/06/28 02:18:02;;;;;;;7.43;6.70;;;20.90;88.40;;;;;;5051063;28;20481;-50
2021/06/28 02:20:30;;;;;;;9.07;6.70;;;20.90;88.50;;;;;;5051265;28;20531;-49
2021/06/28 02:23:11;;;;;;;8.43;6.90;;;20.90;88.80;;;;;;5049592;28;21033;-49
2021/06/28 02:25:38;;;;;;;7.53;6.73;;;20.90;88.80;;;;;;5051060;28;20460;-52
2021/06/28 02:28:05;;;;;;;7.10;6.50;;;20.90;88.90;;;;;;5050977;28;20760;-54
2021/06/28 02:30:31;;;;;;;12.10;8.13;;;20.80;89.00;;;;;;5051045;28;20427;-50
2021/06/28 02:32:59;;;;;;;7.30;6.60;;;20.80;89.40;;;;;;5051153;28;20864;-51
2021/06/28 02:35:26;;;;;;;7.60;6.80;;;20.80;89.50;;;;;;5051454;28;20761;-50
2021/06/28 02:37:53;;;;;;;8.87;6.70;;;20.80;89.60;;;;;;5050737;28;20842;-51
2021/06/28 02:40:19;;;;;;;6.97;6.27;;;20.80;89.70;;;;;;5050584;28;20436;-50
2021/06/28 02:42:46;;;;;;;8.40;7.03;;;20.70;90.00;;;;;;5051277;28;20535;-52
2021/06/28 02:45:13;;;;;;;8.70;7.80;;;20.70;90.00;;;;;;5051134;28;20439;-50
2021/06/28 02:47:40;;;;;;;7.17;6.47;;;20.70;90.00;;;;;;5050966;28;20479;-50
2021/06/28 02:50:11;;;;;;;7.73;7.03;;;20.70;90.10;;;;;;5050773;28;20853;-50
2021/06/28 02:52:38;;;;;;;7.90;7.10;;;20.70;90.20;;;;;;5051092;28;20459;-50
2021/06/28 02:55:06;;;;;;;8.73;6.67;;;20.60;90.20;;;;;;5050040;28;20435;-52
2021/06/28 02:57:33;;;;;;;8.80;7.57;;;20.70;90.30;;;;;;5050116;28;20550;-51
2021/06/28 03:00:00;;;;;;;9.37;7.60;;;20.60;90.30;;;;;;5050704;28;20444;-51
2021/06/28 03:02:27;;;;;;;8.23;7.27;;;20.60;90.40;;;;;;5050801;28;20431;-51
2021/06/28 03:04:53;;;;;;;7.00;6.30;;;20.60;90.40;;;;;;5050831;28;20432;-50
2021/06/28 03:07:21;;;;;;;7.60;6.90;;;20.60;90.40;;;;;;5050865;28;21043;-50
2021/06/28 03:09:48;;;;;;;8.90;8.00;;;20.60;90.40;;;;;;5050715;28;20427;-50
2021/06/28 03:12:15;;;;;;;8.17;7.37;;;20.70;90.50;;;;;;5050931;28;20443;-51
2021/06/28 03:14:42;;;;;;;10.23;8.17;;;20.70;90.60;;;;;;5051881;28;20980;-50
2021/06/28 03:17:08;;;;;;;9.47;8.17;;;20.60;90.60;;;;;;5054390;28;20481;-49
2021/06/28 03:19:35;;;;;;;10.73;6.80;;;20.60;90.60;;;;;;5054300;28;20510;-50
2021/06/28 03:22:01;;;;;;;10.87;7.10;;;20.60;90.60;;;;;;5054485;28;20959;-49
2021/06/28 03:24:29;;;;;;;8.83;7.37;;;20.60;90.70;;;;;;5055259;28;20941;-49
2021/06/28 03:26:56;;;;;;;12.73;8.00;;;20.60;90.80;;;;;;5056842;28;20461;-49
2021/06/28 03:29:23;;;;;;;9.87;8.17;;;20.60;90.80;;;;;;5054257;28;20453;-49
2021/06/28 03:31:49;;;;;;;8.63;7.73;;;20.60;90.90;;;;;;5054663;28;20430;-50
2021/06/28 03:34:16;;;;;;;8.23;7.33;;;20.60;90.90;;;;;;5054534;28;20521;-49
2021/06/28 03:36:43;;;;;;;12.10;7.07;;;20.60;90.90;;;;;;5054263;28;20462;-49
2021/06/28 03:39:10;;;;;;;10.20;8.07;;;20.60;90.90;;;;;;5054084;28;20777;-50
2021/06/28 03:41:38;;;;;;;10.73;8.00;;;20.60;90.90;;;;;;5054393;28;20432;-50
2021/06/28 03:44:05;;;;;;;10.30;8.30;;;20.70;91.00;;;;;;5054352;28;20435;-50
2021/06/28 03:46:32;;;;;;;14.17;8.40;;;20.70;91.00;;;;;;5053955;28;20482;-50
2021/06/28 03:48:59;;;;;;;14.80;8.23;;;20.70;91.00;;;;;;5053908;28;20442;-49
2021/06/28 03:51:26;;;;;;;9.10;8.00;;;20.80;91.00;;;;;;5052747;28;20451;-50
2021/06/28 03:53:52;;;;;;;9.97;8.20;;;20.80;91.00;;;;;;5054304;28;20466;-50
2021/06/28 03:56:19;;;;;;;9.77;7.43;;;20.90;91.00;;;;;;5053821;28;20479;-50
2021/06/28 03:58:47;;;;;;;8.67;7.77;;;20.90;90.90;;;;;;5053622;28;21069;-49
2021/06/28 04:01:14;;;;;;;11.27;8.83;;;21.00;90.90;;;;;;5053750;28;20446;-49
2021/06/28 04:03:41;;;;;;;13.20;8.07;;;21.10;90.90;;;;;;5053813;28;20435;-49
2021/06/28 04:06:09;;;;;;;11.23;8.70;;;21.20;90.70;;;;;;5053390;28;20539;-49
2021/06/28 04:08:38;;;;;;;8.53;7.70;;;21.40;90.50;;;;;;5053364;28;20431;-48
2021/06/28 04:11:05;;;;;;;10.13;7.47;;;21.50;90.10;;;;;;5053582;28;20503;-49
2021/06/28 04:13:32;;;;;;;10.80;7.20;;;21.60;89.50;;;;;;5053528;28;20442;-52
2021/06/28 04:16:00;;;;;;;6.60;6.00;;;21.80;88.70;;;;;;5053619;28;20485;-50
2021/06/28 04:18:27;;;;;;;7.50;6.80;;;22.00;88.00;;;;;;5053223;28;20486;-50
2021/06/28 04:20:54;;;;;;;8.63;7.03;;;22.10;87.20;;;;;;5053498;28;20448;-50
2021/06/28 04:23:21;;;;;;;7.73;6.23;;;22.30;86.50;;;;;;5053517;28;20439;-50
2021/06/28 04:25:47;;;;;;;8.13;6.93;;;22.50;85.60;;;;;;5053288;28;20464;-48
2021/06/28 04:28:14;;;;;;;8.10;7.23;;;22.60;84.60;;;;;;5052793;28;20437;-49
2021/06/28 04:30:41;;;;;;;6.63;6.03;;;22.70;84.10;;;;;;5053368;28;20923;-49
2021/06/28 04:33:09;;;;;;;11.23;6.50;;;22.90;83.40;;;;;;5053308;28;20443;-50
2021/06/28 04:35:36;;;;;;;10.80;7.90;;;23.00;82.70;;;;;;5053155;28;20464;-49
2021/06/28 04:38:02;;;;;;;7.57;6.50;;;23.20;82.20;;;;;;5053513;28;20556;-51
2021/06/28 04:40:30;;;;;;;8.00;6.33;;;23.30;81.60;;;;;;5053240;28;20440;-50
2021/06/28 04:42:58;;;;;;;7.07;5.57;;;23.50;80.90;;;;;;5051487;28;20826;-50
2021/06/28 04:45:26;;;;;;;7.30;5.90;;;23.60;80.20;;;;;;5052638;28;20431;-50
2021/06/28 04:47:53;;;;;;;7.33;6.60;;;23.70;79.60;;;;;;5075428;22;20578;-51
2021/06/28 04:50:22;;;;;;;10.20;7.20;;;23.70;79.00;;;;;;5052192;28;20465;-49
2021/06/28 04:52:50;;;;;;;9.40;6.20;;;23.80;78.60;;;;;;5052472;28;20449;-51
2021/06/28 04:55:16;;;;;;;9.77;6.80;;;23.90;78.50;;;;;;5052245;28;20454;-51
2021/06/28 04:57:45;;;;;;;9.37;7.17;;;23.90;78.20;;;;;;5052430;28;20492;-51
2021/06/28 05:00:14;;;;;;;7.53;5.80;;;24.00;78.00;;;;;;5052188;28;20548;-51
2021/06/28 05:02:41;;;;;;;8.43;6.13;;;24.10;77.80;;;;;;5052490;28;20857;-50
2021/06/28 05:05:09;;;;;;;7.70;6.37;;;24.20;77.30;;;;;;5052167;28;20444;-50
2021/06/28 05:07:37;;;;;;;8.27;7.37;;;24.30;77.00;;;;;;5052264;28;20456;-50
2021/06/28 05:10:05;;;;;;;9.67;6.50;;;24.40;76.80;;;;;;5051796;28;20438;-51
2021/06/28 05:12:31;;;;;;;7.57;6.87;;;24.50;76.40;;;;;;5051993;28;20762;-51
2021/06/28 05:14:58;;;;;;;6.77;6.00;;;24.60;75.70;;;;;;5051927;28;20878;-51
2021/06/28 05:17:25;;;;;;;10.40;6.83;;;24.70;75.10;;;;;;5051866;28;20486;-50
2021/06/28 05:19:52;;;;;;;8.03;6.37;;;24.80;74.70;;;;;;5050120;28;20450;-51
2021/06/28 05:22:18;;;;;;;7.37;6.60;;;24.90;74.10;;;;;;5051859;28;20441;-51
2021/06/28 05:24:46;;;;;;;8.47;5.93;;;24.90;73.50;;;;;;5051659;28;20434;-51
2021/06/28 05:27:13;;;;;;;7.70;6.57;;;25.00;73.10;;;;;;5051514;28;20478;-51
2021/06/28 05:29:40;;;;;;;6.77;6.17;;;25.10;72.80;;;;;;5051594;28;20786;-51
2021/06/28 05:32:07;;;;;;;8.30;6.33;;;25.20;72.30;;;;;;5051806;28;20821;-51
2021/06/28 05:34:33;;;;;;;7.60;5.93;;;25.30;71.80;;;;;;5052493;28;20433;-51
2021/06/28 05:37:00;;;;;;;7.03;6.30;;;25.40;71.20;;;;;;5050375;28;20455;-51
2021/06/28 05:39:27;;;;;;;7.37;6.17;;;25.80;70.70;;;;;;5050838;28;20491;-51
2021/06/28 05:41:55;;;;;;;7.13;5.90;;;25.50;69.70;;;;;;5051500;28;20525;-51
2021/06/28 05:44:21;;;;;;;6.37;5.77;;;25.60;69.40;;;;;;5051840;28;20437;-51
2021/06/28 05:46:48;;;;;;;7.70;5.90;;;25.70;68.80;;;;;;5051430;28;20758;-52
2021/06/28 05:49:15;;;;;;;7.93;6.57;;;25.80;68.30;;;;;;5051106;28;20432;-51
2021/06/28 05:51:42;;;;;;;6.20;5.60;;;25.90;67.70;;;;;;5051587;28;20453;-51
2021/06/28 05:54:09;;;;;;;7.80;7.00;;;25.90;67.40;;;;;;5051286;28;20525;-51
2021/06/28 05:56:35;;;;;;;7.73;5.90;;;25.90;67.10;;;;;;5051076;28;20470;-51
2021/06/28 05:59:03;;;;;;;10.23;5.97;;;25.90;67.00;;;;;;5050895;28;20484;-51
2021/06/28 06:01:30;;;;;;;9.23;6.73;;;26.00;66.70;;;;;;5051367;28;20427;-50
2021/06/28 06:03:57;;;;;;;7.37;5.30;;;26.00;66.40;;;;;;5050431;28;20788;-51
2021/06/28 06:06:23;;;;;;;6.63;6.03;;;26.10;66.30;;;;;;5050924;28;20493;-52
2021/06/28 06:08:50;;;;;;;7.27;6.60;;;26.20;66.20;;;;;;5050704;28;20912;-52
2021/06/28 06:11:17;;;;;;;9.80;6.40;;;26.30;66.10;;;;;;5051152;28;20440;-52
2021/06/28 06:13:45;;;;;;;7.10;6.50;;;26.30;65.90;;;;;;5051027;28;20441;-50
2021/06/28 06:16:13;;;;;;;9.53;6.07;;;26.40;65.70;;;;;;5051410;28;20596;-51
2021/06/28 06:18:40;;;;;;;8.37;5.97;;;26.40;65.70;;;;;;5050122;28;20470;-50
2021/06/28 06:21:06;;;;;;;8.37;5.90;;;26.50;65.60;;;;;;5050609;28;20426;-50
2021/06/28 06:23:33;;;;;;;8.53;6.53;;;26.50;65.00;;;;;;5050286;28;20443;-51
2021/06/28 06:26:00;;;;;;;7.40;6.30;;;26.60;64.90;;;;;;5048625;28;20505;-50
2021/06/28 06:28:26;;;;;;;11.13;6.83;;;26.60;65.00;;;;;;5050460;28;20931;-50
2021/06/28 06:30:53;;;;;;;12.43;7.33;;;26.70;65.20;;;;;;5050704;28;20892;-50
2021/06/28 06:33:21;;;;;;;8.40;6.67;;;26.70;64.90;;;;;;5050091;28;20450;-51
2021/06/28 06:35:48;;;;;;;8.77;6.80;;;26.80;64.60;;;;;;5050382;28;20431;-51
2021/06/28 06:38:15;;;;;;;8.10;7.43;;;26.90;64.90;;;;;;5050383;28;20883;-50
2021/06/28 06:40:42;;;;;;;7.20;6.50;;;27.00;64.80;;;;;;5050672;28;20629;-50
2021/06/28 06:43:09;;;;;;;11.23;6.80;;;27.00;64.70;;;;;;5050310;28;20525;-51
2021/06/28 06:45:35;;;;;;;8.40;7.37;;;27.10;64.60;;;;;;5050497;28;20442;-51
2021/06/28 06:48:02;;;;;;;9.40;7.90;;;27.10;64.40;;;;;;5048476;28;20478;-50
2021/06/28 06:50:31;;;;;;;7.30;6.43;;;27.10;64.20;;;;;;5054401;28;20431;-52
2021/06/28 06:52:57;;;;;;;8.03;6.60;;;27.10;64.10;;;;;;5054426;28;20437;-52
2021/06/28 06:55:25;;;;;;;13.30;6.93;;;27.10;64.00;;;;;;5054548;28;20957;-50
2021/06/28 06:57:52;;;;;;;9.93;6.83;;;27.10;64.00;;;;;;5054693;28;20964;-51
2021/06/28 07:00:21;;;;;;;10.97;6.30;;;27.10;64.00;;;;;;5053722;28;20431;-50
2021/06/28 07:02:48;;;;;;;8.10;7.30;;;27.20;64.10;;;;;;5053834;28;20434;-51
2021/06/28 07:05:17;;;;;;;11.50;8.30;;;27.20;64.10;;;;;;5054021;28;20436;-50
2021/06/28 07:07:46;;;;;;;11.30;7.40;;;27.20;64.00;;;;;;5052556;28;20527;-51
2021/06/28 07:10:15;;;;;;;8.20;7.00;;;27.20;64.10;;;;;;5053487;28;20441;-50
2021/06/28 07:12:43;;;;;;;7.57;6.10;;;27.20;63.90;;;;;;5052311;28;20453;-50
2021/06/28 07:15:13;;;;;;;10.73;7.60;;;27.20;63.70;;;;;;5053644;28;20432;-50
2021/06/28 07:17:41;;;;;;;10.80;7.20;;;27.20;63.80;;;;;;5053974;28;20450;-50
2021/06/28 07:20:10;;;;;;;7.70;6.70;;;27.20;63.70;;;;;;5054070;28;20449;-51
2021/06/28 07:22:37;;;;;;;9.90;7.63;;;27.20;63.50;;;;;;5053895;28;20551;-51
2021/06/28 07:25:06;;;;;;;8.57;7.40;;;27.30;63.40;;;;;;5054165;28;20436;-50
2021/06/28 07:27:33;;;;;;;7.83;6.60;;;27.30;63.30;;;;;;5054026;28;20625;-50
2021/06/28 07:30:00;;;;;;;8.80;7.73;;;27.30;62.90;;;;;;5053296;28;20521;-51
2021/06/28 07:32:27;;;;;;;12.67;7.83;;;27.30;62.20;;;;;;5053769;28;20445;-50
2021/06/28 07:34:53;;;;;;;10.70;7.13;;;27.30;62.40;;;;;;5053325;28;20466;-50
2021/06/28 07:37:20;;;;;;;8.97;8.13;;;27.30;61.90;;;;;;5051473;28;21021;-50
2021/06/28 07:39:48;;;;;;;8.47;7.67;;;27.40;62.20;;;;;;5052579;28;20481;-50
2021/06/28 07:42:16;;;;;;;8.80;7.87;;;27.50;62.00;;;;;;5053628;28;20437;-50
2021/06/28 07:44:43;;;;;;;17.60;9.30;;;27.40;61.60;;;;;;5053181;28;20430;-51
2021/06/28 07:47:10;;;;;;;7.90;7.10;;;27.40;61.60;;;;;;5052776;28;20803;-51
2021/06/28 07:49:36;;;;;;;8.03;7.23;;;27.40;61.50;;;;;;5052640;28;20426;-51
2021/06/28 07:52:04;;;;;;;7.80;7.10;;;27.40;61.00;;;;;;5053049;28;20431;-51
2021/06/28 07:54:30;;;;;;;8.67;7.97;;;27.40;60.10;;;;;;5053286;28;20528;-51
2021/06/28 07:56:57;;;;;;;8.20;7.50;;;27.50;60.10;;;;;;5053217;28;20987;-51
2021/06/28 07:59:25;;;;;;;10.47;7.40;;;27.50;59.80;;;;;;5052804;28;20488;-51
2021/06/28 08:01:51;;;;;;;6.50;6.00;;;27.50;59.60;;;;;;5052697;28;20527;-50
2021/06/28 08:04:18;;;;;;;5.73;5.23;;;27.60;59.40;;;;;;5052879;28;20430;-51
2021/06/28 08:06:45;;;;;;;9.27;5.00;;;27.60;58.00;;;;;;5053395;28;20464;-51
2021/06/28 08:09:12;;;;;;;6.23;5.63;;;27.60;56.80;;;;;;5052922;28;20423;-50
2021/06/28 08:11:39;;;;;;;5.33;4.57;;;27.60;56.90;;;;;;5053462;28;20435;-51
2021/06/28 08:14:05;;;;;;;4.17;3.87;;;27.60;56.10;;;;;;5052938;28;20896;-51
2021/06/28 08:16:33;;;;;;;4.60;4.20;;;27.60;55.00;;;;;;5052609;28;20455;-51
2021/06/28 08:19:00;;;;;;;7.73;5.03;;;27.60;54.60;;;;;;5052135;28;21055;-51
2021/06/28 08:21:27;;;;;;;5.50;5.00;;;27.70;54.90;;;;;;5052561;28;20467;-51
2021/06/28 08:23:54;;;;;;;6.73;4.90;;;27.70;55.00;;;;;;5052779;28;20448;-52
2021/06/28 08:26:20;;;;;;;5.87;4.80;;;27.70;54.80;;;;;;5052632;28;20557;-51
2021/06/28 08:28:47;;;;;;;5.37;4.90;;;27.70;54.70;;;;;;5052424;28;20525;-50
2021/06/28 08:31:14;;;;;;;6.13;5.53;;;27.70;54.40;;;;;;5052435;28;20936;-51
2021/06/28 08:33:43;;;;;;;5.30;4.90;;;27.70;54.50;;;;;;5052980;28;20526;-51
2021/06/28 08:36:10;;;;;;;5.70;5.13;;;27.70;54.60;;;;;;5052565;28;20484;-51
2021/06/28 08:38:37;;;;;;;8.70;6.03;;;27.80;54.70;;;;;;5052308;28;20506;-51
2021/06/28 08:41:04;;;;;;;6.27;4.90;;;27.80;54.50;;;;;;5052575;28;20517;-52
2021/06/28 08:43:30;;;;;;;5.30;4.80;;;27.80;54.20;;;;;;5052216;28;20949;-51
2021/06/28 08:45:57;;;;;;;6.97;4.73;;;27.90;54.20;;;;;;5052087;28;20429;-51
2021/06/28 08:48:24;;;;;;;6.27;4.67;;;27.90;54.10;;;;;;5051670;28;20459;-51
2021/06/28 08:50:53;;;;;;;4.63;4.13;;;27.90;54.20;;;;;;5052616;28;20489;-51
2021/06/28 08:53:21;;;;;;;5.47;4.93;;;27.90;53.90;;;;;;5052018;28;20933;-51
2021/06/28 08:55:49;;;;;;;5.10;4.70;;;28.00;53.90;;;;;;5052502;28;20446;-52
2021/06/28 08:58:16;;;;;;;5.67;4.67;;;28.00;53.50;;;;;;5051717;28;20452;-52
2021/06/28 09:00:43;;;;;;;4.53;4.13;;;28.10;53.40;;;;;;5052040;28;20493;-51
2021/06/28 09:03:10;;;;;;;4.53;4.13;;;28.20;53.20;;;;;;5051742;28;20797;-51
2021/06/28 09:06:05;;;;;;;5.40;4.90;;;28.20;53.40;;;;;;5052301;28;20447;-51
2021/06/28 09:08:33;;;;;;;5.40;4.90;;;28.30;52.50;;;;;;5042383;28;20496;-51
2021/06/28 09:11:00;;;;;;;5.53;5.03;;;28.30;52.80;;;;;;5051812;28;20437;-51
2021/06/28 09:13:38;;;;;;;6.20;5.60;;;28.40;52.80;;;;;;5050909;28;20431;-51
2021/06/28 09:16:16;;;;;;;7.17;5.50;;;28.40;52.50;;;;;;5051498;28;20802;-51
2021/06/28 09:18:54;;;;;;;5.60;5.10;;;28.50;52.50;;;;;;5051646;28;20477;-52
2021/06/28 09:21:31;;;;;;;5.87;4.63;;;28.60;52.60;;;;;;5051517;28;20437;-52
2021/06/28 09:24:00;;;;;;;5.50;4.90;;;28.70;51.80;;;;;;5051463;28;20442;-50
2021/06/28 09:26:31;;;;;;;6.77;5.27;;;28.80;51.60;;;;;;5051174;28;20451;-50
2021/06/28 09:29:00;;;;;;;5.37;4.97;;;28.90;51.30;;;;;;5051559;28;20946;-50
2021/06/28 09:31:34;;;;;;;5.23;4.73;;;29.00;51.10;;;;;;5051369;28;20884;-52
2021/06/28 09:34:11;;;;;;;7.03;4.57;;;29.10;50.90;;;;;;5051609;28;20525;-51
2021/06/28 09:36:48;;;;;;;4.90;4.47;;;29.10;50.40;;;;;;5051195;28;20819;-51
2021/06/28 09:39:26;;;;;;;4.70;4.30;;;29.20;50.20;;;;;;5051208;28;20478;-51
2021/06/28 09:42:01;;;;;;;4.53;4.13;;;29.20;49.80;;;;;;5051240;28;20945;-52
2021/06/28 09:44:30;;;;;;;6.43;5.77;;;29.20;50.00;;;;;;5051364;28;20431;-51
2021/06/28 09:47:05;;;;;;;5.97;4.90;;;29.20;50.00;;;;;;5050763;28;20554;-51
2021/06/28 09:49:32;;;;;;;7.57;4.13;;;29.20;49.60;;;;;;5050890;28;20426;-52
2021/06/28 09:52:00;;;;;;;5.77;5.17;;;29.20;49.30;;;;;;5050906;28;20438;-52
2021/06/28 09:54:27;;;;;;;5.20;4.80;;;29.20;48.90;;;;;;5051216;28;20488;-51
2021/06/28 09:56:55;;;;;;;6.17;5.17;;;29.20;48.90;;;;;;5050838;28;20469;-51
2021/06/28 09:59:30;;;;;;;8.47;7.20;;;29.20;48.70;;;;;;5050372;28;20482;-50
2021/06/28 10:02:15;;;;;;;5.20;4.70;;;29.20;48.60;;;;;;5050853;28;20552;-50
2021/06/28 10:04:46;;;;;;;6.03;5.50;;;29.20;48.60;;;;;;5050604;28;20487;-51
2021/06/28 10:07:29;;;;;;;5.27;4.83;;;29.20;48.80;;;;;;5050854;28;20454;-51
2021/06/28 10:10:16;;;;;;;5.30;4.80;;;29.30;48.50;;;;;;5050314;28;20423;-51
2021/06/28 10:12:45;;;;;;;11.90;5.53;;;29.30;48.30;;;;;;5051070;28;20982;-51
2021/06/28 10:15:14;;;;;;;6.07;5.47;;;29.30;48.20;;;;;;5051238;28;20426;-52
2021/06/28 10:17:42;;;;;;;5.77;4.93;;;29.30;48.30;;;;;;5051346;28;20486;-51
2021/06/28 10:20:11;;;;;;;5.27;4.77;;;29.30;48.30;;;;;;5050671;28;20486;-52
2021/06/28 10:22:40;;;;;;;5.20;4.70;;;29.30;47.50;;;;;;5051449;28;20434;-51
2021/06/28 10:25:09;;;;;;;5.50;5.00;;;29.30;47.70;;;;;;5050634;28;20437;-51
2021/06/28 10:27:36;;;;;;;9.00;5.10;;;29.40;47.70;;;;;;5051113;28;21090;-51
2021/06/28 10:30:06;;;;;;;12.03;6.73;;;29.40;47.90;;;;;;5050564;28;20791;-51
2021/06/28 10:32:33;;;;;;;5.90;5.30;;;29.40;47.90;;;;;;5050393;28;20430;-51
2021/06/28 10:35:22;;;;;;;5.83;5.13;;;29.40;47.90;;;;;;5050313;28;20545;-51
2021/06/28 10:37:50;;;;;;;6.77;5.20;;;29.40;48.40;;;;;;5049376;28;20493;-51
2021/06/28 10:40:19;;;;;;;6.33;5.17;;;29.40;47.70;;;;;;5050473;28;21067;-51
2021/06/28 10:42:48;;;;;;;5.90;5.30;;;29.40;47.50;;;;;;5050478;28;20459;-51
2021/06/28 10:45:17;;;;;;;5.87;5.37;;;29.40;47.50;;;;;;5050210;28;20464;-52
2021/06/28 10:48:06;;;;;;;6.80;5.80;;;29.40;47.80;;;;;;5088519;22;21168;-53
2021/06/28 10:50:50;;;;;;;5.37;4.87;;;29.50;47.80;;;;;;5070859;28;20430;-53
2021/06/28 10:53:39;;;;;;;5.77;5.27;;;29.50;48.00;;;;;;5070548;28;20444;-52
2021/06/28 10:58:55;;;;;;;5.83;5.10;;;29.50;47.50;;;;;;5070258;28;20441;-52
2021/06/28 11:01:35;;;;;;;6.03;4.70;;;29.60;47.30;;;;;;5070852;28;20430;-53
2021/06/28 11:04:06;;;;;;;5.90;5.33;;;29.70;47.10;;;;;;5070635;28;20429;-53
2021/06/28 11:06:33;;;;;;;8.33;4.70;;;29.80;46.70;;;;;;5070498;28;20466;-53
2021/06/28 11:09:04;;;;;;;5.10;4.70;;;29.80;46.60;;;;;;5070683;28;20850;-52
2021/06/28 11:11:55;;;;;;;5.40;4.90;;;30.00;46.80;;;;;;5071679;28;20445;-53
2021/06/28 11:14:42;;;;;;;4.70;4.30;;;30.10;45.40;;;;;;5072376;28;20433;-53
2021/06/28 11:17:11;;;;;;;4.50;4.10;;;30.20;44.90;;;;;;5071498;28;20454;-53
2021/06/28 11:20:03;;;;;;;4.40;4.00;;;30.20;44.70;;;;;;5070444;28;20973;-53
2021/06/28 11:22:32;;;;;;;6.80;3.80;;;30.30;43.80;;;;;;5071524;28;20780;-53
2021/06/28 11:25:00;;;;;;;4.60;3.77;;;30.40;44.00;;;;;;5070830;28;20430;-53
2021/06/28 11:27:28;;;;;;;4.10;3.70;;;30.50;43.90;;;;;;5071417;28;20459;-53
2021/06/28 11:29:56;;;;;;;4.63;3.67;;;30.70;43.80;;;;;;5070521;28;20425;-52
2021/06/28 11:32:24;;;;;;;5.80;4.50;;;30.80;43.60;;;;;;5071501;28;20430;-53
2021/06/28 11:34:51;;;;;;;7.73;4.60;;;30.90;43.20;;;;;;5071117;28;20801;-52
2021/06/28 11:37:18;;;;;;;4.83;4.07;;;31.00;42.90;;;;;;5074184;28;20446;-54
2021/06/28 11:39:55;;;;;;;4.13;3.73;;;31.00;42.80;;;;;;5074302;28;20844;-52
2021/06/28 11:42:26;;;;;;;5.27;4.50;;;31.20;42.60;;;;;;5074305;28;20528;-54
2021/06/28 11:44:58;;;;;;;4.30;3.97;;;31.30;42.60;;;;;;5074402;28;20432;-53
2021/06/28 11:48:00;;;;;;;4.50;3.93;;;31.30;42.50;;;;;;5074278;28;20806;-53
2021/06/28 11:50:29;;;;;;;4.43;4.07;;;31.40;41.70;;;;;;5073958;28;20436;-53
2021/06/28 11:52:59;;;;;;;5.00;4.50;;;31.50;41.70;;;;;;5073963;28;20433;-54
2021/06/28 11:55:25;;;;;;;7.83;4.70;;;31.50;41.50;;;;;;5074034;28;20424;-52
2021/06/28 11:57:52;;;;;;;6.50;4.80;;;31.50;41.40;;;;;;5073462;28;20446;-53
2021/06/28 12:00:21;;;;;;;4.47;3.57;;;31.50;41.40;;;;;;5072990;28;20495;-54
2021/06/28 12:02:48;;;;;;;3.73;3.43;;;31.40;41.30;;;;;;5073110;28;20422;-53
2021/06/28 12:05:25;;;;;;;5.80;4.30;;;31.30;41.40;;;;;;5073625;28;20447;-54
2021/06/28 12:07:52;;;;;;;4.60;3.70;;;31.30;41.20;;;;;;5073180;28;20450;-53
2021/06/28 12:10:20;;;;;;;4.57;4.17;;;31.30;42.00;;;;;;5072920;28;20446;-53
2021/06/28 12:12:56;;;;;;;5.80;4.23;;;31.40;41.40;;;;;;5073004;28;20472;-53
2021/06/28 12:15:26;;;;;;;5.50;4.10;;;31.50;41.20;;;;;;5073665;28;20523;-53
2021/06/28 12:17:52;;;;;;;4.50;4.10;;;31.50;41.00;;;;;;5073486;28;20457;-54
2021/06/28 12:20:20;;;;;;;4.63;4.13;;;31.50;40.90;;;;;;5073424;28;20474;-53
2021/06/28 12:22:50;;;;;;;3.53;3.23;;;31.60;40.70;;;;;;5073614;28;20954;-53
2021/06/28 12:25:19;;;;;;;6.83;3.90;;;31.60;40.50;;;;;;5072914;28;20453;-53
2021/06/28 12:27:47;;;;;;;5.47;3.67;;;31.70;40.50;;;;;;5073023;28;20470;-54
2021/06/28 12:30:16;;;;;;;5.40;4.47;;;31.70;40.50;;;;;;5072962;28;20425;-54
2021/06/28 12:32:46;;;;;;;5.80;4.30;;;31.70;40.80;;;;;;5073126;28;20426;-54
2021/06/28 12:35:17;;;;;;;7.40;3.80;;;31.70;40.80;;;;;;5072924;28;20444;-53
2021/06/28 12:37:50;;;;;;;7.03;4.73;;;31.70;40.50;;;;;;5072782;28;20999;-53
2021/06/28 12:40:19;;;;;;;3.97;3.60;;;31.70;40.20;;;;;;5054356;28;20477;-53
2021/06/28 12:42:47;;;;;;;5.37;4.43;;;31.70;40.10;;;;;;5072587;28;20983;-53
2021/06/28 12:45:16;;;;;;;7.60;3.87;;;31.80;40.00;;;;;;5072816;28;20441;-54
2021/06/28 12:47:50;;;;;;;4.97;3.67;;;31.90;39.60;;;;;;5072440;28;20507;-54
2021/06/28 12:50:20;;;;;;;9.20;5.00;;;32.00;38.90;;;;;;5072675;28;20518;-53
2021/06/28 12:52:47;;;;;;;4.87;3.90;;;32.00;38.70;;;;;;5072931;28;20805;-54
2021/06/28 12:55:21;;;;;;;3.97;3.57;;;32.10;38.80;;;;;;5072366;28;20434;-53